createdAt,value
2017-10-29T00:00:27.585Z,86.90
2017-10-29T00:02:55.088Z,86.90
2017-10-29T00:05:22.581Z,86.90
2017-10-29T00:07:50.882Z,86.20
2017-10-29T00:10:18.386Z,86.20
2017-10-29T00:12:45.871Z,86.00
2017-10-29T00:15:14.133Z,85.80
2017-10-29T00:17:41.643Z,85.80
2017-10-29T00:20:09.147Z,85.70
2017-10-29T00:22:36.623Z,85.80
2017-10-29T00:25:04.956Z,85.20
2017-10-29T00:27:32.454Z,85.20
2017-10-29T00:29:59.967Z,85.20
2017-10-29T00:32:27.464Z,85.30
2017-10-29T00:34:54.948Z,85.30
2017-10-29T00:37:23.223Z,86.00
2017-10-29T00:39:51.495Z,85.30
2017-10-29T00:42:19.741Z,85.60
2017-10-29T00:44:47.227Z,85.60
2017-10-29T00:47:14.731Z,85.80
2017-10-29T00:49:42.217Z,85.80
2017-10-29T00:52:09.701Z,85.50
2017-10-29T00:54:38.081Z,84.50
2017-10-29T00:57:06.365Z,84.30
2017-10-29T00:59:33.844Z,84.30
2017-10-29T01:02:01.349Z,84.10
2017-10-29T01:04:28.837Z,84.10
2017-10-29T01:06:56.322Z,84.00
2017-10-29T01:09:23.835Z,84.00
2017-10-29T01:11:52.118Z,84.00
2017-10-29T01:14:20.373Z,84.10
2017-10-29T01:16:47.964Z,84.10
2017-10-29T01:19:15.448Z,85.10
2017-10-29T01:21:42.969Z,84.50
2017-10-29T01:24:11.244Z,84.50
2017-10-29T01:26:39.496Z,84.30
2017-10-29T01:29:07.076Z,84.30
2017-10-29T01:31:35.352Z,84.20
2017-10-29T01:34:03.629Z,84.80
2017-10-29T01:36:31.886Z,85.20
2017-10-29T01:38:59.461Z,85.20
2017-10-29T01:41:27.706Z,85.40
2017-10-29T01:43:55.192Z,85.40
2017-10-29T01:46:23.459Z,86.00
2017-10-29T01:48:50.939Z,85.90
2017-10-29T01:51:19.192Z,86.20
2017-10-29T01:53:46.767Z,86.20
2017-10-29T01:56:15.024Z,86.40
2017-10-29T01:58:42.604Z,86.30
2017-10-29T02:01:10.872Z,86.50
2017-10-29T02:03:39.121Z,86.80
2017-10-29T02:06:08.113Z,86.00
2017-10-29T02:08:35.628Z,86.00
2017-10-29T02:11:03.112Z,85.90
2017-10-29T02:13:30.585Z,86.20
2017-10-29T02:15:58.908Z,86.40
2017-10-29T02:18:27.153Z,86.50
2017-10-29T02:20:54.731Z,86.50
2017-10-29T02:23:23.012Z,87.00
2017-10-29T02:25:51.272Z,86.40
2017-10-29T02:28:18.755Z,86.40
2017-10-29T02:30:46.258Z,91.40
2017-10-29T02:33:13.747Z,91.60
2017-10-29T02:35:41.236Z,91.70
2017-10-29T02:38:08.710Z,91.40
2017-10-29T02:40:36.207Z,90.40
2017-10-29T02:43:03.689Z,86.40
2017-10-29T02:45:31.944Z,86.00
2017-10-29T02:47:59.422Z,85.80
2017-10-29T02:50:27.685Z,86.60
2017-10-29T02:52:55.977Z,86.70
2017-10-29T02:55:24.245Z,86.80
2017-10-29T02:57:51.778Z,86.70
2017-10-29T03:00:19.260Z,86.90
2017-10-29T03:02:47.498Z,86.50
2017-10-29T03:05:14.995Z,86.50
2017-10-29T03:07:43.262Z,86.20
2017-10-29T03:10:10.767Z,86.10
2017-10-29T03:12:38.244Z,86.10
2017-10-29T03:15:05.745Z,86.40
2017-10-29T03:17:34.002Z,86.20
2017-10-29T03:20:01.479Z,86.20
2017-10-29T03:22:29.741Z,86.60
2017-10-29T03:24:57.229Z,86.60
2017-10-29T03:27:24.729Z,86.10
2017-10-29T03:29:52.212Z,86.40
2017-10-29T03:32:19.695Z,85.90
2017-10-29T03:34:47.936Z,86.60
2017-10-29T03:37:15.422Z,86.70
2017-10-29T03:39:43.679Z,86.10
2017-10-29T03:42:11.183Z,86.10
2017-10-29T03:44:38.658Z,86.30
2017-10-29T03:47:06.163Z,85.30
2017-10-29T03:49:34.412Z,86.60
2017-10-29T03:52:01.913Z,86.50
2017-10-29T03:54:29.397Z,87.40
2017-10-29T03:56:56.889Z,88.10
2017-10-29T03:59:24.376Z,88.30
2017-10-29T04:01:52.640Z,88.40
2017-10-29T04:04:20.130Z,88.30
2017-10-29T04:06:48.175Z,86.80
2017-10-29T04:09:16.433Z,86.60
2017-10-29T04:11:43.921Z,86.50
2017-10-29T04:14:11.434Z,86.40
2017-10-29T04:16:38.942Z,85.90
2017-10-29T04:19:06.493Z,85.60
2017-10-29T04:21:34.755Z,85.00
2017-10-29T04:24:02.232Z,85.00
2017-10-29T04:26:29.725Z,84.90
2017-10-29T04:28:57.211Z,84.20
2017-10-29T04:31:24.711Z,84.00
2017-10-29T04:33:52.180Z,83.20
2017-10-29T04:36:19.673Z,82.40
2017-10-29T04:38:47.159Z,81.90
2017-10-29T04:41:16.136Z,81.80
2017-10-29T04:43:43.626Z,81.70
2017-10-29T04:46:11.892Z,80.80
2017-10-29T04:48:40.139Z,81.70
2017-10-29T04:51:07.728Z,81.70
2017-10-29T04:53:35.977Z,80.00
2017-10-29T04:56:03.566Z,80.00
2017-10-29T04:58:31.816Z,79.40
2017-10-29T05:00:59.346Z,79.30
2017-10-29T05:03:26.815Z,80.00
2017-10-29T05:05:54.298Z,80.80
2017-10-29T05:08:21.786Z,79.40
2017-10-29T05:10:49.273Z,80.00
2017-10-29T05:13:16.786Z,79.10
2017-10-29T05:15:45.042Z,79.60
2017-10-29T05:18:12.527Z,79.50
2017-10-29T05:20:40.804Z,78.70
2017-10-29T05:23:08.291Z,78.50
2017-10-29T05:25:35.826Z,78.70
2017-10-29T05:28:03.376Z,79.70
2017-10-29T05:30:31.621Z,78.20
2017-10-29T05:32:59.098Z,78.10
2017-10-29T05:35:27.368Z,78.20
2017-10-29T05:37:54.869Z,78.10
2017-10-29T05:40:22.428Z,78.10
2017-10-29T05:42:49.909Z,78.20
2017-10-29T05:45:17.413Z,77.20
2017-10-29T05:47:45.659Z,74.40
2017-10-29T05:50:13.279Z,74.40
2017-10-29T05:52:40.763Z,70.10
2017-10-29T05:55:08.273Z,70.90
2017-10-29T05:57:35.742Z,70.40
2017-10-29T06:00:03.246Z,69.80
2017-10-29T06:02:30.729Z,71.00
2017-10-29T06:04:58.994Z,70.50
2017-10-29T06:07:26.482Z,70.40
2017-10-29T06:09:53.961Z,70.30
2017-10-29T06:12:21.462Z,69.70
2017-10-29T06:14:49.760Z,69.10
2017-10-29T06:17:18.012Z,68.30
2017-10-29T06:19:45.492Z,68.30
2017-10-29T06:22:13.756Z,68.60
2017-10-29T06:24:42.060Z,67.70
2017-10-29T06:27:09.548Z,67.60
2017-10-29T06:29:37.224Z,67.80
2017-10-29T06:32:04.829Z,66.90
2017-10-29T06:34:33.113Z,67.10
2017-10-29T06:37:00.616Z,67.10
2017-10-29T06:39:28.121Z,67.00
2017-10-29T06:41:56.383Z,66.30
2017-10-29T06:44:24.640Z,66.10
2017-10-29T06:46:52.141Z,66.00
2017-10-29T06:49:19.631Z,65.40
2017-10-29T06:51:47.152Z,65.90
2017-10-29T06:54:15.271Z,65.50
2017-10-29T06:56:42.773Z,66.30
2017-10-29T06:59:11.139Z,66.90
2017-10-29T07:01:38.712Z,66.80
2017-10-29T07:04:06.973Z,67.80
2017-10-29T07:06:34.451Z,67.70
2017-10-29T07:09:02.705Z,67.60
2017-10-29T07:11:30.202Z,67.60
2017-10-29T07:13:57.819Z,67.70
2017-10-29T07:16:26.262Z,67.40
2017-10-29T07:18:53.747Z,67.00
2017-10-29T07:21:21.337Z,67.70
2017-10-29T07:23:48.833Z,68.20
2017-10-29T07:26:16.320Z,68.40
2017-10-29T07:28:43.817Z,68.30
2017-10-29T07:31:12.089Z,68.50
2017-10-29T07:33:40.360Z,68.00
2017-10-29T07:36:08.643Z,69.00
2017-10-29T07:38:36.146Z,68.80
2017-10-29T07:41:03.651Z,68.60
2017-10-29T07:43:31.901Z,69.60
2017-10-29T07:45:59.493Z,69.50
2017-10-29T07:48:27.732Z,71.30
2017-10-29T07:50:55.222Z,71.20
2017-10-29T07:53:23.471Z,72.50
2017-10-29T07:55:50.962Z,72.50
2017-10-29T07:58:19.212Z,73.30
2017-10-29T08:00:46.705Z,73.30
2017-10-29T08:03:14.180Z,73.70
2017-10-29T08:05:41.672Z,72.20
2017-10-29T08:08:09.168Z,72.00
2017-10-29T08:10:36.664Z,71.30
2017-10-29T08:13:04.180Z,69.80
2017-10-29T08:15:32.432Z,69.90
2017-10-29T08:17:59.926Z,69.90
2017-10-29T08:20:27.408Z,69.50
2017-10-29T08:22:54.904Z,69.40
2017-10-29T08:25:22.384Z,69.50
2017-10-29T08:27:50.636Z,69.90
2017-10-29T08:30:18.148Z,69.90
2017-10-29T08:32:45.686Z,70.10
2017-10-29T08:35:13.212Z,70.00
2017-10-29T08:37:40.708Z,70.30
2017-10-29T08:42:42.216Z,70.70
2017-10-29T08:45:09.753Z,70.90
2017-10-29T08:47:37.250Z,71.50
2017-10-29T08:50:04.742Z,71.80
2017-10-29T08:52:32.998Z,72.90
2017-10-29T08:55:01.255Z,74.40
2017-10-29T08:57:28.859Z,73.70
2017-10-29T08:59:57.104Z,74.30
2017-10-29T09:02:24.600Z,74.30
2017-10-29T09:04:52.087Z,75.00
2017-10-29T09:07:19.576Z,72.80
2017-10-29T09:09:47.064Z,72.40
2017-10-29T09:12:14.805Z,71.50
2017-10-29T09:14:42.302Z,70.80
2017-10-29T09:17:09.827Z,70.40
2017-10-29T09:19:38.084Z,70.90
2017-10-29T09:22:05.598Z,70.90
2017-10-29T09:24:33.078Z,71.10
2017-10-29T09:27:00.627Z,70.70
2017-10-29T09:29:28.110Z,70.70
2017-10-29T09:31:55.604Z,71.70
2017-10-29T09:34:23.886Z,73.10
2017-10-29T09:36:51.364Z,73.70
2017-10-29T09:39:18.836Z,72.70
2017-10-29T09:41:46.324Z,72.50
2017-10-29T09:44:13.836Z,72.60
2017-10-29T09:46:41.353Z,71.70
2017-10-29T09:49:08.839Z,71.60
2017-10-29T09:51:36.339Z,71.80
2017-10-29T09:54:03.812Z,71.90
2017-10-29T09:56:31.329Z,71.80
2017-10-29T09:58:58.859Z,72.40
2017-10-29T10:01:27.117Z,73.10
2017-10-29T10:03:54.659Z,73.10
2017-10-29T10:06:23.039Z,74.10
2017-10-29T10:08:50.516Z,74.50
2017-10-29T10:11:18.776Z,74.10
2017-10-29T10:13:46.269Z,74.10
2017-10-29T10:16:13.794Z,73.80
2017-10-29T10:18:41.270Z,73.60
2017-10-29T10:21:09.552Z,72.90
2017-10-29T10:23:37.801Z,73.20
2017-10-29T10:26:05.383Z,73.20
2017-10-29T10:28:33.627Z,70.80
2017-10-29T10:31:01.280Z,71.80
2017-10-29T10:33:28.776Z,69.60
2017-10-29T10:35:57.048Z,69.00
2017-10-29T10:38:24.535Z,69.00
2017-10-29T10:40:52.017Z,69.70
2017-10-29T10:43:19.491Z,69.10
2017-10-29T10:45:47.009Z,69.10
2017-10-29T10:48:14.600Z,69.40
2017-10-29T10:50:42.104Z,68.10
2017-10-29T10:53:10.402Z,68.10
2017-10-29T10:55:37.891Z,68.00
2017-10-29T10:58:05.366Z,65.90
2017-10-29T11:00:32.948Z,65.00
2017-10-29T11:03:00.431Z,65.20
2017-10-29T11:05:27.971Z,65.10
2017-10-29T11:07:56.211Z,65.70
2017-10-29T11:10:23.711Z,65.70
2017-10-29T11:12:51.947Z,68.10
2017-10-29T11:15:19.551Z,68.00
2017-10-29T11:17:47.797Z,69.50
2017-10-29T11:20:15.276Z,69.50
2017-10-29T11:22:43.517Z,66.70
2017-10-29T11:25:11.105Z,66.70
2017-10-29T11:27:39.349Z,64.90
2017-10-29T11:30:11.561Z,64.90
2017-10-29T11:32:39.211Z,63.70
2017-10-29T11:35:14.109Z,64.30
2017-10-29T11:37:43.580Z,64.20
2017-10-29T11:40:11.063Z,64.40
2017-10-29T11:42:39.015Z,65.70
2017-10-29T11:45:07.078Z,66.10
2017-10-29T11:47:34.604Z,66.00
2017-10-29T11:50:04.729Z,65.80
2017-10-29T11:52:32.986Z,66.50
2017-10-29T11:55:00.460Z,66.50
2017-10-29T11:57:28.733Z,67.40
2017-10-29T11:59:56.981Z,67.10
2017-10-29T12:02:24.483Z,67.00
2017-10-29T12:04:51.967Z,65.60
2017-10-29T12:07:19.484Z,64.50
2017-10-29T12:09:47.728Z,64.20
2017-10-29T12:12:15.211Z,64.10
2017-10-29T12:14:42.736Z,64.50
2017-10-29T12:17:10.227Z,64.80
2017-10-29T12:19:38.469Z,65.80
2017-10-29T12:22:05.957Z,65.70
2017-10-29T12:24:33.443Z,65.50
2017-10-29T12:27:00.981Z,67.60
2017-10-29T12:29:29.263Z,70.70
2017-10-29T12:31:57.573Z,72.00
2017-10-29T12:34:25.109Z,72.00
2017-10-29T12:36:52.594Z,72.00
2017-10-29T12:39:20.113Z,72.30
2017-10-29T12:41:48.369Z,72.20
2017-10-29T12:44:18.945Z,72.20
2017-10-29T12:46:46.439Z,71.90
2017-10-29T12:49:13.925Z,71.70
2017-10-29T12:51:42.167Z,70.60
2017-10-29T12:54:09.768Z,70.50
2017-10-29T12:56:38.041Z,69.80
2017-10-29T12:59:06.275Z,69.00
2017-10-29T13:01:33.763Z,69.00
2017-10-29T13:04:02.044Z,68.00
2017-10-29T13:06:30.318Z,67.60
2017-10-29T13:08:57.819Z,67.60
2017-10-29T13:11:25.316Z,68.20
2017-10-29T13:13:52.804Z,67.40
2017-10-29T13:16:21.063Z,67.80
2017-10-29T13:18:48.646Z,67.80
2017-10-29T13:21:16.892Z,67.40
2017-10-29T13:23:44.381Z,67.40
2017-10-29T13:26:11.928Z,67.90
2017-10-29T13:28:40.188Z,68.00
2017-10-29T13:31:07.681Z,67.90
2017-10-29T13:33:35.173Z,68.20
2017-10-29T13:36:02.655Z,68.10
2017-10-29T13:38:30.137Z,69.10
2017-10-29T13:40:58.192Z,69.80
2017-10-29T13:43:25.689Z,70.40
2017-10-29T13:45:53.184Z,72.60
2017-10-29T13:48:20.679Z,71.70
2017-10-29T13:50:48.959Z,72.70
2017-10-29T13:53:16.472Z,72.50
2017-10-29T13:55:44.012Z,72.10
2017-10-29T13:58:11.487Z,72.60
2017-10-29T14:00:38.971Z,71.00
2017-10-29T14:03:06.465Z,72.00
2017-10-29T14:05:34.028Z,71.50
2017-10-29T14:08:01.511Z,70.90
2017-10-29T14:10:29.005Z,69.80
2017-10-29T14:12:56.479Z,68.80
2017-10-29T14:15:24.737Z,67.00
2017-10-29T14:17:52.309Z,67.00
2017-10-29T14:20:20.638Z,58.90
2017-10-29T14:22:48.117Z,58.80
2017-10-29T14:25:15.625Z,54.40
2017-10-29T14:27:43.101Z,51.40
2017-10-29T14:30:10.643Z,49.70
2017-10-29T14:32:38.115Z,48.40
2017-10-29T14:35:05.671Z,46.20
2017-10-29T14:37:33.169Z,47.20
2017-10-29T14:40:00.685Z,49.90
2017-10-29T14:42:28.164Z,53.30
2017-10-29T14:44:55.721Z,55.60
2017-10-29T14:47:23.203Z,57.40
2017-10-29T14:49:50.716Z,59.50
2017-10-29T14:52:18.200Z,61.50
2017-10-29T14:54:45.735Z,64.00
2017-10-29T14:57:13.212Z,65.30
2017-10-29T14:59:41.231Z,65.90
2017-10-29T15:02:09.480Z,67.40
2017-10-29T15:04:36.956Z,67.40
2017-10-29T15:07:05.232Z,68.30
2017-10-29T15:09:33.521Z,69.10
2017-10-29T15:12:01.792Z,69.20
2017-10-29T15:14:30.040Z,69.20
2017-10-29T15:16:58.294Z,69.50
2017-10-29T15:19:25.817Z,69.50
2017-10-29T15:21:53.355Z,69.80
2017-10-29T15:24:21.599Z,70.80
2017-10-29T15:26:49.195Z,70.80
2017-10-29T15:29:17.500Z,71.30
2017-10-29T15:31:44.988Z,71.20
2017-10-29T15:34:12.487Z,71.40
2017-10-29T15:36:40.743Z,72.10
2017-10-29T15:39:08.326Z,72.00
2017-10-29T15:41:36.581Z,72.30
2017-10-29T15:44:04.075Z,72.20
2017-10-29T15:46:31.576Z,72.20
2017-10-29T15:48:59.079Z,72.30
2017-10-29T15:51:26.582Z,72.30
2017-10-29T15:53:54.097Z,72.50
2017-10-29T15:56:22.361Z,72.90
2017-10-29T15:58:50.653Z,73.20
2017-10-29T16:01:18.145Z,73.80
2017-10-29T16:03:45.632Z,73.50
2017-10-29T16:06:13.214Z,73.90
2017-10-29T16:08:41.459Z,74.40
2017-10-29T16:11:08.943Z,74.40
2017-10-29T16:13:37.198Z,74.70
2017-10-29T16:16:07.531Z,74.70
2017-10-29T16:18:35.223Z,75.10
2017-10-29T16:21:06.629Z,75.40
2017-10-29T16:23:34.607Z,75.70
2017-10-29T16:26:03.625Z,76.00
2017-10-29T16:28:32.545Z,76.20
2017-10-29T16:31:00.030Z,76.00
2017-10-29T16:33:27.852Z,76.40
2017-10-29T16:35:58.570Z,76.40
2017-10-29T16:38:26.879Z,76.30
2017-10-29T16:40:54.781Z,76.30
2017-10-29T16:43:22.417Z,75.70
2017-10-29T16:45:53.352Z,75.30
2017-10-29T16:48:20.864Z,74.90
2017-10-29T16:50:53.389Z,73.90
2017-10-29T16:53:27.631Z,73.50
2017-10-29T16:55:58.069Z,73.10
2017-10-29T16:58:33.567Z,72.70
2017-10-29T17:01:07.170Z,72.80
2017-10-29T17:03:35.230Z,72.90
2017-10-29T17:06:02.748Z,72.30
2017-10-29T17:08:31.056Z,72.10
2017-10-29T17:11:04.608Z,71.60
2017-10-29T17:13:33.132Z,71.10
2017-10-29T17:16:11.408Z,71.10
2017-10-29T17:18:41.156Z,71.10
2017-10-29T17:21:11.415Z,70.90
2017-10-29T17:23:45.435Z,71.10
2017-10-29T17:26:13.709Z,71.10
2017-10-29T17:28:42.085Z,71.00
2017-10-29T17:31:09.607Z,70.90
2017-10-29T17:33:37.562Z,70.90
2017-10-29T17:36:06.321Z,70.80
2017-10-29T17:38:33.859Z,70.80
2017-10-29T17:41:01.352Z,70.90
2017-10-29T17:43:29.100Z,71.10
2017-10-29T17:45:56.693Z,72.00
2017-10-29T17:48:35.802Z,71.50
2017-10-29T17:51:03.379Z,71.50
2017-10-29T17:53:41.888Z,71.30
2017-10-29T17:56:17.058Z,71.20
2017-10-29T17:58:44.631Z,71.20
2017-10-29T18:01:13.459Z,71.30
2017-10-29T18:03:41.720Z,71.70
2017-10-29T18:06:09.205Z,71.60
2017-10-29T18:08:37.468Z,72.00
2017-10-29T18:11:05.896Z,72.00
2017-10-29T18:13:33.404Z,72.00
2017-10-29T18:16:01.069Z,72.00
2017-10-29T18:18:28.643Z,72.20
2017-10-29T18:20:56.996Z,72.50
2017-10-29T18:23:24.508Z,72.50
2017-10-29T18:25:52.017Z,72.60
2017-10-29T18:28:19.502Z,72.90
2017-10-29T18:30:47.764Z,73.30
2017-10-29T18:33:15.235Z,73.30
2017-10-29T18:35:43.485Z,74.10
2017-10-29T18:38:10.970Z,74.10
2017-10-29T18:40:39.243Z,74.80
2017-10-29T18:43:07.497Z,75.20
2017-10-29T18:45:34.989Z,75.10
2017-10-29T18:48:02.492Z,75.50
2017-10-29T18:50:29.999Z,75.80
2017-10-29T18:52:58.270Z,76.00
2017-10-29T18:55:26.532Z,76.40
2017-10-29T18:57:54.096Z,76.30
2017-10-29T19:00:22.363Z,76.60
2017-10-29T19:02:50.659Z,76.50
2017-10-29T19:05:18.911Z,76.80
2017-10-29T19:07:46.387Z,76.80
2017-10-29T19:10:14.635Z,76.80
2017-10-29T19:12:42.172Z,76.80
2017-10-29T19:15:09.735Z,76.60
2017-10-29T19:17:37.297Z,76.30
2017-10-29T19:20:04.806Z,76.50
2017-10-29T19:22:32.323Z,76.70
2017-10-29T19:24:59.813Z,76.90
2017-10-29T19:27:28.070Z,76.60
2017-10-29T19:29:56.316Z,76.80
2017-10-29T19:32:23.808Z,76.40
2017-10-29T19:34:52.414Z,76.30
2017-10-29T19:37:20.667Z,74.90
2017-10-29T19:39:48.172Z,74.80
2017-10-29T19:42:15.687Z,75.00
2017-10-29T19:44:43.931Z,74.10
2017-10-29T19:47:11.417Z,73.80
2017-10-29T19:49:39.044Z,73.40
2017-10-29T19:52:06.600Z,73.30
2017-10-29T19:54:34.125Z,72.80
2017-10-29T19:57:01.617Z,72.00
2017-10-29T19:59:29.124Z,71.90
2017-10-29T20:01:57.379Z,70.90
2017-10-29T20:04:24.878Z,70.90
2017-10-29T20:06:52.411Z,70.70
2017-10-29T20:09:20.668Z,70.80
2017-10-29T20:11:48.184Z,70.70
2017-10-29T20:14:15.678Z,70.90
2017-10-29T20:16:43.941Z,70.80
2017-10-29T20:19:11.452Z,70.80
2017-10-29T20:21:38.951Z,71.00
2017-10-29T20:24:06.482Z,70.80
2017-10-29T20:26:33.995Z,72.40
2017-10-29T20:29:01.524Z,70.90
2017-10-29T20:31:29.013Z,71.10
2017-10-29T20:33:56.488Z,71.00
2017-10-29T20:36:24.727Z,70.40
2017-10-29T20:38:52.217Z,70.30
2017-10-29T20:41:20.916Z,70.00
2017-10-29T20:43:49.172Z,70.40
2017-10-29T20:46:17.419Z,70.80
2017-10-29T20:48:45.019Z,70.70
2017-10-29T20:51:13.540Z,70.70
2017-10-29T20:53:41.048Z,71.30
2017-10-29T20:56:09.325Z,71.10
2017-10-29T20:58:37.595Z,72.20
2017-10-29T21:01:05.885Z,71.10
2017-10-29T21:03:43.917Z,71.70
2017-10-29T21:06:11.416Z,71.70
2017-10-29T21:08:38.889Z,71.70
2017-10-29T21:11:06.397Z,72.00
2017-10-29T21:13:33.869Z,72.10
2017-10-29T21:16:01.353Z,73.20
2017-10-29T21:18:28.840Z,72.10
2017-10-29T21:20:57.083Z,72.20
2017-10-29T21:23:24.619Z,72.10
2017-10-29T21:25:53.060Z,72.40
2017-10-29T21:28:21.312Z,72.20
2017-10-29T21:30:48.828Z,72.10
2017-10-29T21:33:16.337Z,72.10
2017-10-29T21:35:44.607Z,73.20
2017-10-29T21:38:12.329Z,72.40
2017-10-29T21:40:39.854Z,72.60
2017-10-29T21:43:07.438Z,72.60
2017-10-29T21:45:34.937Z,72.60
2017-10-29T21:48:02.417Z,72.30
2017-10-29T21:50:30.691Z,72.60
2017-10-29T21:52:58.949Z,72.80
2017-10-29T21:55:27.223Z,72.90
2017-10-29T21:57:54.721Z,72.80
2017-10-29T22:00:22.212Z,72.70
2017-10-29T22:02:49.694Z,72.80
2017-10-29T22:05:17.195Z,72.90
2017-10-29T22:07:44.677Z,73.20
2017-10-29T22:10:12.166Z,73.30
2017-10-29T22:12:39.655Z,73.20
2017-10-29T22:15:07.903Z,72.90
2017-10-29T22:17:35.380Z,72.80
2017-10-29T22:20:03.647Z,73.10
2017-10-29T22:22:31.939Z,74.10
2017-10-29T22:25:00.191Z,73.40
2017-10-29T22:27:27.708Z,73.40
2017-10-29T22:29:55.183Z,73.20
2017-10-29T22:32:22.697Z,73.40
2017-10-29T22:34:50.195Z,73.30
2017-10-29T22:37:17.685Z,72.90
2017-10-29T22:39:45.186Z,72.80
2017-10-29T22:42:12.676Z,73.60
2017-10-29T22:44:40.160Z,73.10
2017-10-29T22:47:07.661Z,72.90
2017-10-29T22:49:35.169Z,72.80
2017-10-29T22:52:02.651Z,73.00
2017-10-29T22:54:30.892Z,73.10
2017-10-29T22:56:58.373Z,73.00
2017-10-29T22:59:26.614Z,73.50
2017-10-29T23:01:54.098Z,73.40
2017-10-29T23:04:22.347Z,74.30
2017-10-29T23:06:49.832Z,73.90
2017-10-29T23:09:23.987Z,73.30
2017-10-29T23:11:51.828Z,73.20
2017-10-29T23:14:20.104Z,73.40
2017-10-29T23:16:48.343Z,73.20
2017-10-29T23:19:15.836Z,73.20
2017-10-29T23:21:44.098Z,73.00
2017-10-29T23:24:12.351Z,72.90
2017-10-29T23:26:39.865Z,72.90
2017-10-29T23:29:08.728Z,73.10
2017-10-29T23:31:37.016Z,73.30
2017-10-29T23:34:04.523Z,73.20
2017-10-29T23:36:32.011Z,73.40
2017-10-29T23:38:59.488Z,73.60
2017-10-29T23:41:27.758Z,73.20
2017-10-29T23:43:56.003Z,73.20
2017-10-29T23:46:23.527Z,73.10
2017-10-29T23:48:51.111Z,73.20
2017-10-29T23:51:18.624Z,73.50
2017-10-29T23:53:46.106Z,73.70
2017-10-29T23:56:13.612Z,73.80
2017-10-29T23:58:41.091Z,74.00
